createdAt,value
2019-01-27T00:01:38.385Z,50.20
2019-01-27T00:04:23.471Z,51.83
2019-01-27T00:07:08.695Z,51.20
2019-01-27T00:09:53.973Z,47.53
2019-01-27T00:12:39.591Z,47.53
2019-01-27T00:15:24.285Z,49.17
2019-01-27T00:18:09.486Z,50.43
2019-01-27T00:20:54.742Z,51.47
2019-01-27T00:23:40.090Z,52.97
2019-01-27T00:26:25.393Z,50.50
2019-01-27T00:29:10.326Z,49.33
2019-01-27T00:31:55.446Z,47.97
2019-01-27T00:34:40.747Z,47.67
2019-01-27T00:37:25.890Z,46.77
2019-01-27T00:40:14.012Z,46.90
2019-01-27T00:42:59.207Z,46.53
2019-01-27T00:45:44.441Z,46.07
2019-01-27T00:48:29.211Z,47.13
2019-01-27T00:51:14.322Z,45.27
2019-01-27T00:53:59.175Z,43.63
2019-01-27T00:56:44.685Z,43.40
2019-01-27T00:59:29.692Z,41.93
2019-01-27T01:02:15.092Z,42.33
2019-01-27T01:05:00.184Z,43.23
2019-01-27T01:07:45.297Z,43.37
2019-01-27T01:10:30.506Z,43.43
2019-01-27T01:13:15.712Z,42.83
2019-01-27T01:16:01.064Z,42.50
2019-01-27T01:18:46.418Z,43.43
2019-01-27T01:21:31.364Z,41.03
2019-01-27T01:24:16.536Z,44.93
2019-01-27T01:27:01.872Z,44.17
2019-01-27T01:29:47.219Z,41.60
2019-01-27T01:32:32.578Z,42.20
2019-01-27T01:35:17.950Z,41.17
2019-01-27T01:38:03.249Z,42.23
2019-01-27T01:40:48.624Z,42.30
2019-01-27T01:43:33.589Z,43.33
2019-01-27T01:46:18.397Z,43.67
2019-01-27T01:49:03.523Z,43.47
2019-01-27T01:51:48.277Z,43.63
2019-01-27T01:54:33.723Z,46.77
2019-01-27T01:57:18.973Z,47.07
2019-01-27T02:00:07.750Z,44.37
2019-01-27T02:02:52.900Z,45.40
2019-01-27T02:05:38.273Z,43.07
2019-01-27T02:08:23.684Z,45.10
2019-01-27T02:11:09.198Z,45.07
2019-01-27T02:13:54.110Z,44.17
2019-01-27T02:16:39.478Z,46.63
2019-01-27T02:19:24.534Z,46.57
2019-01-27T02:22:10.014Z,45.37
2019-01-27T02:24:55.090Z,47.67
2019-01-27T02:27:40.069Z,45.73
2019-01-27T02:30:26.329Z,44.90
2019-01-27T02:33:11.247Z,48.87
2019-01-27T02:35:56.083Z,45.40
2019-01-27T02:38:41.513Z,46.17
2019-01-27T02:41:26.487Z,46.13
2019-01-27T02:44:11.650Z,46.73
2019-01-27T02:46:56.699Z,46.17
2019-01-27T02:49:41.668Z,49.40
2019-01-27T02:52:26.459Z,49.13
2019-01-27T02:55:11.667Z,49.47
2019-01-27T02:57:56.296Z,50.30
2019-01-27T03:00:41.866Z,47.80
2019-01-27T03:03:27.216Z,50.47
2019-01-27T03:06:19.951Z,48.00
2019-01-27T03:09:08.565Z,49.17
2019-01-27T03:11:53.514Z,55.33
2019-01-27T03:14:38.264Z,61.20
2019-01-27T03:17:23.481Z,64.03
2019-01-27T03:20:10.438Z,59.47
2019-01-27T03:22:55.470Z,59.93
2019-01-27T03:25:40.707Z,52.87
2019-01-27T03:28:25.434Z,55.10
2019-01-27T03:31:10.794Z,53.40
2019-01-27T03:33:56.072Z,53.63
2019-01-27T03:36:41.039Z,54.67
2019-01-27T03:39:26.254Z,51.97
2019-01-27T03:42:11.228Z,52.90
2019-01-27T03:44:56.081Z,52.23
2019-01-27T03:47:41.855Z,52.57
2019-01-27T03:50:27.651Z,52.67
2019-01-27T03:53:12.343Z,53.93
2019-01-27T03:55:57.024Z,56.87
2019-01-27T03:58:42.137Z,51.93
2019-01-27T04:01:26.981Z,53.60
2019-01-27T04:04:12.244Z,52.87
2019-01-27T04:06:57.704Z,54.83
2019-01-27T04:09:43.083Z,53.17
2019-01-27T04:12:28.108Z,54.53
2019-01-27T04:15:12.960Z,55.83
2019-01-27T04:17:57.954Z,56.50
2019-01-27T04:20:42.764Z,54.80
2019-01-27T04:23:28.095Z,52.03
2019-01-27T04:26:13.223Z,55.90
2019-01-27T04:28:58.238Z,52.30
2019-01-27T04:31:43.499Z,53.17
2019-01-27T04:34:28.718Z,51.60
2019-01-27T04:37:13.455Z,52.63
2019-01-27T04:39:58.320Z,53.03
2019-01-27T04:42:43.539Z,55.70
2019-01-27T04:45:33.587Z,53.60
2019-01-27T04:48:19.159Z,54.70
2019-01-27T04:51:03.955Z,54.80
2019-01-27T04:53:49.189Z,55.53
2019-01-27T04:56:34.888Z,55.93
2019-01-27T04:59:20.754Z,56.10
2019-01-27T05:02:05.591Z,56.83
2019-01-27T05:04:50.893Z,57.80
2019-01-27T05:07:36.262Z,55.80
2019-01-27T05:10:21.249Z,59.30
2019-01-27T05:13:06.016Z,57.93
2019-01-27T05:15:50.867Z,55.93
2019-01-27T05:18:36.250Z,59.50
2019-01-27T05:21:21.486Z,59.67
2019-01-27T05:24:06.228Z,59.83
2019-01-27T05:26:51.622Z,61.40
2019-01-27T05:29:37.223Z,62.17
2019-01-27T05:32:22.305Z,63.03
2019-01-27T05:35:07.254Z,65.40
2019-01-27T05:37:52.559Z,63.27
2019-01-27T05:40:38.162Z,62.47
2019-01-27T05:43:23.145Z,61.83
2019-01-27T05:46:08.380Z,67.27
2019-01-27T05:48:54.106Z,65.30
2019-01-27T05:51:39.568Z,65.63
2019-01-27T05:54:24.892Z,66.97
2019-01-27T05:57:10.034Z,68.70
2019-01-27T05:59:54.929Z,66.07
2019-01-27T06:02:39.936Z,71.03
2019-01-27T06:05:24.764Z,69.83
2019-01-27T06:08:09.959Z,66.77
2019-01-27T06:10:55.244Z,71.13
2019-01-27T06:13:41.925Z,69.37
2019-01-27T06:16:27.233Z,68.67
2019-01-27T06:19:12.343Z,73.43
2019-01-27T06:21:58.140Z,70.93
2019-01-27T06:24:43.220Z,71.40
2019-01-27T06:27:28.654Z,70.27
2019-01-27T06:30:27.566Z,73.93
2019-01-27T06:36:28.433Z,76.47
2019-01-27T06:39:13.312Z,73.57
2019-01-27T06:41:58.456Z,71.67
2019-01-27T06:44:44.224Z,75.27
2019-01-27T06:47:29.545Z,76.53
2019-01-27T06:50:14.651Z,76.53
2019-01-27T06:52:59.642Z,76.90
2019-01-27T06:55:45.426Z,74.47
2019-01-27T06:58:32.259Z,71.77
2019-01-27T07:01:19.421Z,73.10
2019-01-27T07:04:08.877Z,72.20
2019-01-27T07:06:58.921Z,73.83
2019-01-27T07:10:02.675Z,68.63
2019-01-27T07:12:55.662Z,71.40
2019-01-27T07:15:45.510Z,68.57
2019-01-27T07:18:35.712Z,73.17
2019-01-27T07:21:25.354Z,69.10
2019-01-27T07:24:27.670Z,70.30
2019-01-27T07:27:17.636Z,69.30
2019-01-27T07:30:26.489Z,67.23
2019-01-27T07:33:30.060Z,66.20
2019-01-27T07:36:19.834Z,66.87
2019-01-27T07:39:17.942Z,67.00
2019-01-27T07:42:10.942Z,68.00
2019-01-27T07:45:06.850Z,66.73
2019-01-27T07:47:56.479Z,67.13
2019-01-27T07:51:01.548Z,71.43
2019-01-27T07:54:08.679Z,68.13
2019-01-27T07:57:04.509Z,68.07
2019-01-27T07:59:54.233Z,69.37
2019-01-27T08:02:44.047Z,67.87
2019-01-27T08:05:31.213Z,68.60
2019-01-27T08:08:18.330Z,70.27
2019-01-27T08:11:17.097Z,67.17
2019-01-27T08:14:04.071Z,70.47
2019-01-27T08:16:53.937Z,70.67
2019-01-27T08:19:41.003Z,71.00
2019-01-27T08:22:33.769Z,70.30
2019-01-27T08:25:26.907Z,66.97
2019-01-27T08:28:33.826Z,67.47
2019-01-27T08:31:27.288Z,68.30
2019-01-27T08:34:31.268Z,66.40
2019-01-27T08:37:31.478Z,66.97
2019-01-27T08:40:21.654Z,69.57
2019-01-27T08:43:23.592Z,66.50
2019-01-27T08:46:10.776Z,65.50
2019-01-27T08:48:59.582Z,71.03
2019-01-27T08:51:45.432Z,74.50
2019-01-27T08:54:30.575Z,73.37
2019-01-27T08:57:16.508Z,66.10
2019-01-27T09:00:02.870Z,65.47
2019-01-27T09:02:56.171Z,63.73
2019-01-27T09:05:49.149Z,60.53
2019-01-27T09:08:52.751Z,61.97
2019-01-27T09:11:55.067Z,59.87
2019-01-27T09:14:42.715Z,58.43
2019-01-27T09:17:32.521Z,62.37
2019-01-27T09:20:22.167Z,60.67
2019-01-27T09:23:12.447Z,60.93
2019-01-27T09:25:59.862Z,60.13
2019-01-27T09:28:46.647Z,58.97
2019-01-27T09:31:33.187Z,59.43
2019-01-27T09:34:23.117Z,57.63
2019-01-27T09:37:16.474Z,62.23
2019-01-27T09:40:06.406Z,58.27
2019-01-27T09:43:02.328Z,59.23
2019-01-27T09:46:05.272Z,55.80
2019-01-27T09:48:52.525Z,56.53
2019-01-27T09:51:39.706Z,55.20
2019-01-27T09:54:29.238Z,56.97
2019-01-27T09:57:28.488Z,56.17
2019-01-27T10:00:23.799Z,57.53
2019-01-27T10:03:11.009Z,55.40
2019-01-27T10:05:58.931Z,55.57
2019-01-27T10:08:46.091Z,60.63
2019-01-27T10:11:33.231Z,59.87
2019-01-27T10:14:29.493Z,54.43
2019-01-27T10:17:16.543Z,55.77
2019-01-27T10:20:12.302Z,54.80
2019-01-27T10:23:02.398Z,55.53
2019-01-27T10:26:06.283Z,54.37
2019-01-27T10:29:02.607Z,54.27
2019-01-27T10:31:55.730Z,55.43
2019-01-27T10:34:43.084Z,53.47
2019-01-27T10:37:39.110Z,56.60
2019-01-27T10:40:26.206Z,53.87
2019-01-27T10:43:13.210Z,57.73
2019-01-27T10:46:03.079Z,55.73
2019-01-27T10:49:05.095Z,54.37
2019-01-27T10:52:00.372Z,53.33
2019-01-27T10:55:02.276Z,54.13
2019-01-27T10:58:07.256Z,53.37
2019-01-27T11:01:12.631Z,54.20
2019-01-27T11:04:02.048Z,53.43
2019-01-27T11:06:57.803Z,54.67
2019-01-27T11:09:59.861Z,53.33
2019-01-27T11:12:52.693Z,51.33
2019-01-27T11:15:45.445Z,52.67
2019-01-27T11:18:48.276Z,53.20
2019-01-27T11:21:46.957Z,48.97
2019-01-27T11:24:33.993Z,51.87
2019-01-27T11:27:32.948Z,51.70
2019-01-27T11:30:31.851Z,50.53
2019-01-27T11:33:24.760Z,53.07
2019-01-27T11:36:20.907Z,52.93
2019-01-27T11:39:08.442Z,51.47
2019-01-27T11:41:55.554Z,53.70
2019-01-27T11:44:57.294Z,52.87
2019-01-27T11:47:53.258Z,53.23
2019-01-27T11:50:39.682Z,51.73
2019-01-27T11:53:24.667Z,53.33
2019-01-27T11:56:09.739Z,52.57
2019-01-27T11:58:54.596Z,52.27
2019-01-27T12:01:39.918Z,53.57
2019-01-27T12:04:25.444Z,54.93
2019-01-27T12:07:10.554Z,52.87
2019-01-27T12:09:55.749Z,53.97
2019-01-27T12:12:40.963Z,52.00
2019-01-27T12:15:26.071Z,54.60
2019-01-27T12:18:11.477Z,52.83
2019-01-27T12:20:56.852Z,52.63
2019-01-27T12:23:42.375Z,53.57
2019-01-27T12:26:27.888Z,55.33
2019-01-27T12:29:12.820Z,54.60
2019-01-27T12:31:57.772Z,55.20
2019-01-27T12:34:43.280Z,57.97
2019-01-27T12:37:28.652Z,56.83
2019-01-27T12:40:17.308Z,59.10
2019-01-27T12:43:02.076Z,57.27
2019-01-27T12:45:47.914Z,56.37
2019-01-27T12:48:33.050Z,58.23
2019-01-27T12:51:18.459Z,59.47
2019-01-27T12:54:03.733Z,60.17
2019-01-27T12:56:48.960Z,60.23
2019-01-27T12:59:34.161Z,61.87
2019-01-27T13:02:19.590Z,63.40
2019-01-27T13:05:04.846Z,65.20
2019-01-27T13:07:50.207Z,64.73
2019-01-27T13:10:35.387Z,66.67
2019-01-27T13:13:20.656Z,63.63
2019-01-27T13:16:05.975Z,64.50
2019-01-27T13:18:51.623Z,66.73
2019-01-27T13:21:36.785Z,65.77
2019-01-27T13:24:22.633Z,68.73
2019-01-27T13:27:07.950Z,65.17
2019-01-27T13:29:53.325Z,70.33
2019-01-27T13:32:38.662Z,67.83
2019-01-27T13:35:23.595Z,71.33
2019-01-27T13:38:14.567Z,70.37
2019-01-27T13:40:59.373Z,68.67
2019-01-27T13:43:44.594Z,69.60
2019-01-27T13:46:30.017Z,70.53
2019-01-27T13:49:16.543Z,69.20
2019-01-27T13:52:01.875Z,70.20
2019-01-27T13:54:48.615Z,69.50
2019-01-27T13:57:33.963Z,73.20
2019-01-27T14:00:31.218Z,69.03
2019-01-27T14:03:17.120Z,68.03
2019-01-27T14:06:02.273Z,68.03
2019-01-27T14:08:47.274Z,66.87
2019-01-27T14:11:32.534Z,69.63
2019-01-27T14:14:19.904Z,66.10
2019-01-27T14:17:04.722Z,67.83
2019-01-27T14:19:50.280Z,66.13
2019-01-27T14:22:35.399Z,66.33
2019-01-27T14:25:27.034Z,66.83
2019-01-27T14:28:11.983Z,65.93
2019-01-27T14:30:56.726Z,68.10
2019-01-27T14:33:42.028Z,67.93
2019-01-27T14:36:27.312Z,67.83
2019-01-27T14:39:12.510Z,67.03
2019-01-27T14:41:57.955Z,66.30
2019-01-27T14:44:43.192Z,68.00
2019-01-27T14:47:28.454Z,67.53
2019-01-27T14:50:20.849Z,67.53
2019-01-27T14:53:06.892Z,65.37
2019-01-27T14:55:52.247Z,66.10
2019-01-27T14:58:37.611Z,65.63
2019-01-27T15:01:22.601Z,64.20
2019-01-27T15:04:07.545Z,66.57
2019-01-27T15:06:52.888Z,69.43
2019-01-27T15:09:38.259Z,79.60
2019-01-27T15:12:24.089Z,70.23
2019-01-27T15:15:12.652Z,63.60
2019-01-27T15:17:57.844Z,71.57
2019-01-27T15:20:46.290Z,69.47
2019-01-27T15:23:31.493Z,70.90
2019-01-27T15:26:16.518Z,82.10
2019-01-27T15:29:01.551Z,83.57
2019-01-27T15:31:46.648Z,87.27
2019-01-27T15:34:31.585Z,81.27
2019-01-27T15:37:17.042Z,68.97
2019-01-27T15:40:02.798Z,77.73
2019-01-27T15:42:48.058Z,75.27
2019-01-27T15:45:33.256Z,69.67
2019-01-27T15:48:18.406Z,59.80
2019-01-27T15:51:03.727Z,65.93
2019-01-27T15:53:49.059Z,60.07
2019-01-27T15:56:34.401Z,61.73
2019-01-27T15:59:19.899Z,59.83
2019-01-27T16:02:04.969Z,57.73
2019-01-27T16:04:50.296Z,58.10
2019-01-27T16:07:35.217Z,58.10
2019-01-27T16:10:25.057Z,71.80
2019-01-27T16:13:10.755Z,59.27
2019-01-27T16:15:56.143Z,55.27
2019-01-27T16:18:41.290Z,56.70
2019-01-27T16:21:27.206Z,54.47
2019-01-27T16:24:14.318Z,55.10
2019-01-27T16:26:59.684Z,54.13
2019-01-27T16:29:49.067Z,52.67
2019-01-27T16:32:34.900Z,56.90
2019-01-27T16:35:20.324Z,55.20
2019-01-27T16:38:05.446Z,60.13
2019-01-27T16:40:50.794Z,55.63
2019-01-27T16:43:35.889Z,54.07
2019-01-27T16:46:21.171Z,53.43
2019-01-27T16:49:06.321Z,51.93
2019-01-27T16:51:51.353Z,55.17
2019-01-27T16:54:36.220Z,52.73
2019-01-27T16:57:21.267Z,52.47
2019-01-27T17:00:21.942Z,51.27
2019-01-27T17:03:07.219Z,48.80
2019-01-27T17:05:52.565Z,49.67
2019-01-27T17:08:37.671Z,50.20
2019-01-27T17:11:22.449Z,46.73
2019-01-27T17:14:07.981Z,46.20
2019-01-27T17:16:53.365Z,46.70
2019-01-27T17:19:38.518Z,47.30
2019-01-27T17:22:23.647Z,48.03
2019-01-27T17:25:10.374Z,47.97
2019-01-27T17:27:55.911Z,46.93
2019-01-27T17:30:41.293Z,48.23
2019-01-27T17:33:27.033Z,47.70
2019-01-27T17:36:12.214Z,48.03
2019-01-27T17:38:57.018Z,47.53
2019-01-27T17:41:43.518Z,46.03
2019-01-27T17:44:29.256Z,47.20
2019-01-27T17:47:14.448Z,47.33
2019-01-27T17:50:01.058Z,46.37
2019-01-27T17:52:46.530Z,46.43
2019-01-27T17:55:36.699Z,45.10
2019-01-27T17:58:34.681Z,46.77
2019-01-27T18:01:36.866Z,50.20
2019-01-27T18:04:40.379Z,47.43
2019-01-27T18:07:27.623Z,45.57
2019-01-27T18:10:14.159Z,46.20
2019-01-27T18:13:00.923Z,44.23
2019-01-27T18:15:45.722Z,47.90
2019-01-27T18:18:30.466Z,45.67
2019-01-27T18:21:15.232Z,44.30
2019-01-27T18:24:00.477Z,44.53
2019-01-27T18:26:45.608Z,44.50
2019-01-27T18:29:30.691Z,44.00
2019-01-27T18:32:16.434Z,43.20
2019-01-27T18:35:01.952Z,43.70
2019-01-27T18:37:47.002Z,43.87
2019-01-27T18:40:31.782Z,45.27
2019-01-27T18:43:16.901Z,43.37
2019-01-27T18:46:01.809Z,43.93
2019-01-27T18:48:47.099Z,44.87
2019-01-27T18:51:32.367Z,45.00
2019-01-27T18:54:28.262Z,44.47
2019-01-27T18:57:15.044Z,42.93
2019-01-27T19:00:02.307Z,42.93
2019-01-27T19:02:51.752Z,42.93
2019-01-27T19:05:39.027Z,43.93
2019-01-27T19:08:36.193Z,41.80
2019-01-27T19:11:38.346Z,45.27
2019-01-27T19:14:27.854Z,44.77
2019-01-27T19:17:27.085Z,45.10
2019-01-27T19:20:17.829Z,45.13
2019-01-27T19:23:04.904Z,44.53
2019-01-27T19:25:57.690Z,44.50
2019-01-27T19:28:44.754Z,45.47
2019-01-27T19:31:32.258Z,44.97
2019-01-27T19:34:31.426Z,44.67
2019-01-27T19:37:24.706Z,42.33
2019-01-27T19:40:14.997Z,43.80
2019-01-27T19:43:05.291Z,45.90
2019-01-27T19:45:52.549Z,43.37
2019-01-27T19:48:45.197Z,43.53
2019-01-27T19:51:37.962Z,43.53
2019-01-27T19:54:33.853Z,44.37
2019-01-27T19:57:23.817Z,42.37
2019-01-27T20:00:13.851Z,44.03
2019-01-27T20:03:00.389Z,43.93
2019-01-27T20:05:49.981Z,42.87
2019-01-27T20:08:55.789Z,44.77
2019-01-27T20:11:51.323Z,45.07
2019-01-27T20:14:44.382Z,45.27
2019-01-27T20:17:48.062Z,45.30
2019-01-27T20:20:47.212Z,45.43
2019-01-27T20:23:52.200Z,46.07
2019-01-27T20:26:55.602Z,47.57
2019-01-27T20:29:48.087Z,44.07
2019-01-27T20:32:41.371Z,44.27
2019-01-27T20:35:28.468Z,42.97
2019-01-27T20:38:19.239Z,44.67
2019-01-27T20:41:18.428Z,44.73
2019-01-27T20:44:08.794Z,44.00
2019-01-27T20:46:55.551Z,44.40
2019-01-27T20:49:51.889Z,44.40
2019-01-27T20:52:43.483Z,44.43
2019-01-27T20:55:36.223Z,45.90
2019-01-27T20:58:29.298Z,44.53
2019-01-27T21:01:34.307Z,43.20
2019-01-27T21:07:37.685Z,43.40
2019-01-27T21:10:36.610Z,43.03
2019-01-27T21:13:23.742Z,44.13
2019-01-27T21:16:10.558Z,44.47
2019-01-27T21:19:00.488Z,44.20
2019-01-27T21:21:48.725Z,42.80
2019-01-27T21:24:33.712Z,43.30
2019-01-27T21:27:19.062Z,43.03
2019-01-27T21:30:10.397Z,43.63
2019-01-27T21:32:55.823Z,42.30
2019-01-27T21:35:40.932Z,44.47
2019-01-27T21:38:26.247Z,43.10
2019-01-27T21:41:11.761Z,40.83
2019-01-27T21:43:56.783Z,41.97
2019-01-27T21:46:41.833Z,43.77
2019-01-27T21:49:28.731Z,41.93
2019-01-27T21:52:13.633Z,43.47
2019-01-27T21:54:58.354Z,43.53
2019-01-27T21:57:43.810Z,41.50
2019-01-27T22:00:29.511Z,42.50
2019-01-27T22:03:14.393Z,40.77
2019-01-27T22:05:59.497Z,41.07
2019-01-27T22:08:44.391Z,41.97
2019-01-27T22:11:29.500Z,40.93
2019-01-27T22:14:14.649Z,41.87
2019-01-27T22:16:59.369Z,40.17
2019-01-27T22:19:44.662Z,40.97
2019-01-27T22:22:29.982Z,41.00
2019-01-27T22:25:14.736Z,40.27
2019-01-27T22:28:00.890Z,40.93
2019-01-27T22:30:45.943Z,38.57
2019-01-27T22:33:30.756Z,40.93
2019-01-27T22:36:15.891Z,39.77
2019-01-27T22:39:01.384Z,42.17
2019-01-27T22:41:46.673Z,43.83
2019-01-27T22:44:31.475Z,39.33
2019-01-27T22:47:16.632Z,40.83
2019-01-27T22:50:01.863Z,38.87
2019-01-27T22:52:47.011Z,38.63
2019-01-27T22:55:31.934Z,38.17
2019-01-27T22:58:17.520Z,39.23
2019-01-27T23:01:04.083Z,38.03
2019-01-27T23:03:48.890Z,39.23
2019-01-27T23:06:33.565Z,39.37
2019-01-27T23:09:18.879Z,35.43
2019-01-27T23:12:04.267Z,35.53
2019-01-27T23:14:49.708Z,34.90
2019-01-27T23:17:34.747Z,36.93
2019-01-27T23:20:20.196Z,36.47
2019-01-27T23:23:05.210Z,35.93
2019-01-27T23:25:50.561Z,36.17
2019-01-27T23:28:35.772Z,34.60
2019-01-27T23:31:21.318Z,35.17
2019-01-27T23:34:06.380Z,34.83
2019-01-27T23:36:51.127Z,35.07
2019-01-27T23:39:36.212Z,34.80
2019-01-27T23:42:21.118Z,34.63
2019-01-27T23:45:09.533Z,35.93
2019-01-27T23:48:14.458Z,34.33
2019-01-27T23:50:59.566Z,35.47
2019-01-27T23:53:44.466Z,34.30
2019-01-27T23:56:29.613Z,34.23
2019-01-27T23:59:14.425Z,34.93
